createdAt,value
2018-04-16T00:01:36.307Z,88.19
2018-04-16T00:04:07.125Z,88.85
2018-04-16T00:06:37.928Z,88.94
2018-04-16T00:09:08.727Z,89.25
2018-04-16T00:11:39.539Z,88.71
2018-04-16T00:14:10.353Z,87.67
2018-04-16T00:16:41.147Z,86.88
2018-04-16T00:19:11.974Z,86.78
2018-04-16T00:21:42.798Z,86.13
2018-04-16T00:24:13.583Z,86.41
2018-04-16T00:26:44.390Z,86.09
2018-04-16T00:29:15.166Z,86.33
2018-04-16T00:31:52.109Z,86.40
2018-04-16T00:34:29.119Z,85.81
2018-04-16T00:37:06.052Z,85.94
2018-04-16T00:39:43.103Z,85.97
2018-04-16T00:42:20.159Z,84.38
2018-04-16T00:44:57.010Z,83.99
2018-04-16T00:47:33.941Z,83.97
2018-04-16T00:50:10.868Z,84.57
2018-04-16T00:52:47.868Z,84.44
2018-04-16T00:55:24.856Z,83.41
2018-04-16T00:58:01.708Z,83.31
2018-04-16T01:00:38.741Z,84.17
2018-04-16T01:03:15.691Z,84.17
2018-04-16T01:05:52.548Z,83.00
2018-04-16T01:08:29.472Z,83.37
2018-04-16T01:11:06.399Z,83.63
2018-04-16T01:13:43.414Z,84.27
2018-04-16T01:16:20.265Z,85.30
2018-04-16T01:18:57.184Z,86.25
2018-04-16T01:21:34.207Z,86.78
2018-04-16T01:24:11.100Z,85.54
2018-04-16T01:26:48.180Z,86.17
2018-04-16T01:29:25.003Z,84.96
2018-04-16T01:32:01.876Z,84.14
2018-04-16T01:34:38.726Z,84.94
2018-04-16T01:37:15.535Z,85.24
2018-04-16T01:39:52.301Z,85.76
2018-04-16T01:42:29.287Z,85.09
2018-04-16T01:45:06.362Z,86.84
2018-04-16T01:47:43.388Z,87.21
2018-04-16T01:50:20.332Z,87.57
2018-04-16T01:52:57.323Z,87.69
2018-04-16T01:55:34.356Z,88.15
2018-04-16T01:58:11.364Z,89.33
2018-04-16T02:00:48.465Z,88.68
2018-04-16T02:03:25.449Z,89.50
2018-04-16T02:06:02.570Z,90.29
2018-04-16T02:08:39.591Z,91.63
2018-04-16T02:11:16.423Z,92.76
2018-04-16T02:13:53.364Z,93.04
2018-04-16T02:16:30.383Z,93.14
2018-04-16T02:19:07.219Z,93.12
2018-04-16T02:21:44.081Z,92.40
2018-04-16T02:24:20.898Z,90.54
2018-04-16T02:26:57.760Z,89.74
2018-04-16T02:29:34.820Z,90.62
2018-04-16T02:32:11.860Z,91.80
2018-04-16T02:34:48.733Z,90.92
2018-04-16T02:37:25.772Z,91.00
2018-04-16T02:40:02.702Z,91.11
2018-04-16T02:45:42.428Z,90.30
2018-04-16T02:48:19.287Z,89.91
2018-04-16T02:50:56.368Z,90.81
2018-04-16T02:56:40.841Z,92.06
2018-04-16T02:59:17.753Z,91.37
2018-04-16T03:01:54.620Z,91.13
2018-04-16T03:04:31.638Z,90.72
2018-04-16T03:07:08.591Z,91.01
2018-04-16T03:09:45.600Z,90.14
2018-04-16T03:12:22.580Z,90.73
2018-04-16T03:14:59.563Z,90.98
2018-04-16T03:17:36.604Z,91.20
2018-04-16T03:20:13.460Z,91.73
2018-04-16T03:22:50.355Z,92.23
2018-04-16T03:25:27.216Z,92.17
2018-04-16T03:28:04.119Z,91.16
2018-04-16T03:30:40.977Z,89.65
2018-04-16T03:33:17.860Z,89.53
2018-04-16T03:39:01.524Z,88.95
2018-04-16T03:41:38.581Z,89.11
2018-04-16T03:44:15.563Z,89.06
2018-04-16T03:46:52.471Z,89.32
2018-04-16T03:49:29.447Z,89.86
2018-04-16T03:52:09.145Z,89.91
2018-04-16T03:54:39.964Z,89.02
2018-04-16T03:57:10.807Z,88.50
2018-04-16T03:59:41.588Z,88.49
2018-04-16T04:02:12.391Z,88.78
2018-04-16T04:04:43.187Z,89.35
2018-04-16T04:07:13.980Z,89.34
2018-04-16T04:09:44.771Z,90.11
2018-04-16T04:12:15.576Z,90.33
2018-04-16T04:14:46.344Z,90.60
2018-04-16T04:17:17.181Z,90.16
2018-04-16T04:19:47.991Z,90.14
2018-04-16T04:22:18.815Z,90.76
2018-04-16T04:25:02.093Z,91.32
2018-04-16T04:27:45.192Z,91.37
2018-04-16T04:30:28.408Z,91.51
2018-04-16T04:32:59.201Z,91.59
2018-04-16T04:35:29.985Z,91.53
2018-04-16T04:38:00.792Z,92.09
2018-04-16T04:40:31.582Z,91.29
2018-04-16T04:43:02.386Z,91.44
2018-04-16T04:45:33.145Z,91.83
2018-04-16T04:48:03.927Z,91.74
2018-04-16T04:50:34.746Z,91.90
2018-04-16T04:53:05.609Z,92.14
2018-04-16T04:55:36.392Z,91.96
2018-04-16T04:58:07.220Z,92.03
2018-04-16T05:00:38.005Z,91.94
2018-04-16T05:03:08.788Z,91.85
2018-04-16T05:05:39.585Z,91.99
2018-04-16T05:08:10.365Z,91.82
2018-04-16T05:10:41.143Z,91.46
2018-04-16T05:13:11.939Z,91.43
2018-04-16T05:15:42.721Z,91.42
2018-04-16T05:18:13.580Z,91.55
2018-04-16T05:20:44.352Z,91.92
2018-04-16T05:23:15.173Z,92.17
2018-04-16T05:25:45.971Z,92.36
2018-04-16T05:28:16.790Z,92.34
2018-04-16T05:30:47.602Z,92.61
2018-04-16T05:33:18.446Z,93.10
2018-04-16T05:35:49.308Z,92.96
2018-04-16T05:38:20.116Z,92.80
2018-04-16T05:40:50.884Z,92.30
2018-04-16T05:43:21.676Z,92.75
2018-04-16T05:45:52.459Z,92.81
2018-04-16T05:48:23.239Z,92.62
2018-04-16T05:50:54.019Z,92.56
2018-04-16T05:53:24.842Z,92.73
2018-04-16T05:55:55.643Z,92.63
2018-04-16T05:58:26.460Z,91.51
2018-04-16T06:00:57.277Z,90.57
2018-04-16T06:03:28.092Z,89.92
2018-04-16T06:05:58.903Z,90.47
2018-04-16T06:08:29.739Z,90.55
2018-04-16T06:11:00.518Z,90.46
2018-04-16T06:13:31.321Z,90.33
2018-04-16T06:16:02.135Z,90.35
2018-04-16T06:18:32.947Z,90.01
2018-04-16T06:21:03.757Z,89.54
2018-04-16T06:23:34.575Z,88.96
2018-04-16T06:26:05.398Z,89.15
2018-04-16T06:28:36.203Z,89.00
2018-04-16T06:31:06.994Z,87.85
2018-04-16T06:33:37.847Z,87.92
2018-04-16T06:36:08.636Z,87.98
2018-04-16T06:38:39.520Z,88.03
2018-04-16T06:41:10.331Z,86.92
2018-04-16T06:43:41.231Z,87.94
2018-04-16T06:46:12.106Z,88.43
2018-04-16T06:48:43.124Z,87.14
2018-04-16T06:51:14.029Z,86.03
2018-04-16T06:53:44.870Z,86.95
2018-04-16T06:56:15.700Z,86.94
2018-04-16T06:58:46.513Z,85.47
2018-04-16T07:01:17.366Z,84.79
2018-04-16T07:03:48.197Z,85.97
2018-04-16T07:06:18.982Z,86.10
2018-04-16T07:08:49.818Z,85.60
2018-04-16T07:11:20.606Z,83.43
2018-04-16T07:13:51.475Z,83.82
2018-04-16T07:16:22.317Z,83.80
2018-04-16T07:18:53.216Z,84.30
2018-04-16T07:21:24.123Z,85.21
2018-04-16T07:23:55.084Z,84.75
2018-04-16T07:26:25.879Z,86.81
2018-04-16T07:28:56.683Z,84.58
2018-04-16T07:31:27.571Z,84.09
2018-04-16T07:33:58.415Z,84.29
2018-04-16T07:36:29.373Z,84.62
2018-04-16T07:39:00.208Z,83.62
2018-04-16T07:41:31.107Z,82.80
2018-04-16T07:44:01.944Z,83.67
2018-04-16T07:46:32.760Z,82.83
2018-04-16T07:49:03.582Z,81.60
2018-04-16T07:51:34.325Z,80.45
2018-04-16T07:54:05.144Z,80.81
2018-04-16T07:56:35.943Z,80.77
2018-04-16T07:59:06.775Z,80.13
2018-04-16T08:01:37.608Z,78.93
2018-04-16T08:04:08.456Z,79.43
2018-04-16T08:06:39.250Z,78.33
2018-04-16T08:09:10.039Z,78.75
2018-04-16T08:11:40.890Z,75.84
2018-04-16T08:14:11.698Z,75.45
2018-04-16T08:16:42.584Z,75.73
2018-04-16T08:19:13.438Z,74.01
2018-04-16T08:21:44.168Z,74.33
2018-04-16T08:24:15.007Z,73.22
2018-04-16T08:26:45.785Z,74.34
2018-04-16T08:29:16.609Z,74.59
2018-04-16T08:31:47.415Z,74.47
2018-04-16T08:34:18.232Z,74.76
2018-04-16T08:36:49.004Z,73.91
2018-04-16T08:39:19.805Z,74.86
2018-04-16T08:41:50.628Z,77.51
2018-04-16T08:44:21.424Z,76.95
2018-04-16T08:46:52.199Z,76.67
2018-04-16T08:49:22.983Z,79.43
2018-04-16T08:51:53.763Z,78.20
2018-04-16T08:54:24.697Z,79.46
2018-04-16T08:56:55.487Z,77.45
2018-04-16T08:59:26.314Z,78.40
2018-04-16T09:01:57.135Z,79.92
2018-04-16T09:04:27.951Z,80.35
2018-04-16T09:06:58.761Z,82.50
2018-04-16T09:09:29.575Z,83.07
2018-04-16T09:12:00.347Z,82.53
2018-04-16T09:14:31.133Z,83.83
2018-04-16T09:17:01.976Z,84.28
2018-04-16T09:19:32.775Z,85.56
2018-04-16T09:22:03.556Z,85.30
2018-04-16T09:24:34.376Z,85.58
2018-04-16T09:27:05.157Z,85.83
2018-04-16T09:29:35.996Z,85.67
2018-04-16T09:32:06.807Z,85.55
2018-04-16T09:34:37.628Z,85.70
2018-04-16T09:37:08.416Z,84.89
2018-04-16T09:39:39.258Z,83.52
2018-04-16T09:42:10.086Z,85.46
2018-04-16T09:44:40.938Z,82.98
2018-04-16T09:47:11.740Z,85.14
2018-04-16T09:49:42.544Z,81.42
2018-04-16T09:52:13.322Z,80.90
2018-04-16T09:54:44.138Z,80.65
2018-04-16T09:57:14.968Z,80.96
2018-04-16T09:59:45.805Z,80.11
2018-04-16T10:02:22.847Z,79.38
2018-04-16T10:04:53.667Z,79.35
2018-04-16T10:07:24.486Z,79.13
2018-04-16T10:09:55.288Z,82.15
2018-04-16T10:12:26.220Z,82.19
2018-04-16T10:14:57.020Z,80.19
2018-04-16T10:17:27.797Z,80.28
2018-04-16T10:19:58.622Z,81.64
2018-04-16T10:22:29.452Z,82.24
2018-04-16T10:25:00.254Z,81.16
2018-04-16T10:27:31.032Z,83.99
2018-04-16T10:30:01.834Z,81.99
2018-04-16T10:32:32.606Z,81.44
2018-04-16T10:35:03.449Z,81.13
2018-04-16T10:37:34.289Z,77.10
2018-04-16T10:40:05.109Z,77.58
2018-04-16T10:42:35.948Z,75.86
2018-04-16T10:45:06.749Z,75.95
2018-04-16T10:47:37.530Z,72.00
2018-04-16T10:50:08.342Z,70.48
2018-04-16T10:52:39.144Z,72.29
2018-04-16T10:55:10.004Z,70.54
2018-04-16T10:57:40.812Z,68.72
2018-04-16T11:00:11.652Z,70.29
2018-04-16T11:02:42.436Z,67.59
2018-04-16T11:05:13.300Z,67.60
2018-04-16T11:07:44.096Z,69.28
2018-04-16T11:10:14.942Z,65.74
2018-04-16T11:12:45.739Z,65.40
2018-04-16T11:15:16.521Z,66.17
2018-04-16T11:17:47.321Z,67.43
2018-04-16T11:20:18.168Z,64.76
2018-04-16T11:22:48.995Z,64.55
2018-04-16T11:25:19.835Z,64.83
2018-04-16T11:27:50.627Z,67.98
2018-04-16T11:30:21.540Z,68.72
2018-04-16T11:32:52.358Z,64.49
2018-04-16T11:35:23.179Z,65.29
2018-04-16T11:37:54.032Z,66.51
2018-04-16T11:40:24.933Z,66.89
2018-04-16T11:42:55.792Z,67.37
2018-04-16T11:45:26.649Z,64.07
2018-04-16T11:47:57.477Z,63.22
2018-04-16T11:50:28.287Z,62.06
2018-04-16T11:52:59.066Z,62.20
2018-04-16T11:55:29.917Z,62.11
2018-04-16T11:58:00.732Z,59.75
2018-04-16T12:00:31.599Z,57.13
2018-04-16T12:03:02.433Z,58.46
2018-04-16T12:05:33.240Z,58.28
2018-04-16T12:08:04.013Z,59.87
2018-04-16T12:10:34.825Z,61.25
2018-04-16T12:13:05.613Z,61.46
2018-04-16T12:15:36.416Z,63.36
2018-04-16T12:18:07.215Z,63.83
2018-04-16T12:20:38.035Z,62.20
2018-04-16T12:23:08.812Z,61.00
2018-04-16T12:25:39.636Z,59.98
2018-04-16T12:28:10.420Z,59.74
2018-04-16T12:30:41.292Z,61.24
2018-04-16T12:33:12.072Z,60.83
2018-04-16T12:35:42.891Z,59.37
2018-04-16T12:38:13.780Z,56.21
2018-04-16T12:40:44.617Z,56.29
2018-04-16T12:43:15.411Z,56.33
2018-04-16T12:45:46.282Z,57.13
2018-04-16T12:48:17.144Z,58.70
2018-04-16T12:50:47.979Z,58.82
2018-04-16T12:53:18.780Z,59.72
2018-04-16T12:55:49.611Z,57.37
2018-04-16T12:58:20.519Z,57.42
2018-04-16T13:00:51.377Z,57.13
2018-04-16T13:03:22.276Z,57.33
2018-04-16T13:05:53.125Z,56.35
2018-04-16T13:08:23.987Z,57.76
2018-04-16T13:10:54.811Z,59.10
2018-04-16T13:13:25.629Z,57.26
2018-04-16T13:15:56.473Z,57.87
2018-04-16T13:18:27.319Z,55.77
2018-04-16T13:20:59.212Z,55.20
2018-04-16T13:23:30.040Z,52.50
2018-04-16T13:26:00.864Z,51.64
2018-04-16T13:28:31.662Z,51.50
2018-04-16T13:31:02.553Z,49.11
2018-04-16T13:33:33.396Z,46.43
2018-04-16T13:36:04.233Z,49.11
2018-04-16T13:38:36.079Z,46.60
2018-04-16T13:41:06.905Z,50.02
2018-04-16T13:43:37.732Z,50.62
2018-04-16T13:46:08.663Z,50.99
2018-04-16T13:48:39.475Z,53.25
2018-04-16T13:51:10.291Z,53.90
2018-04-16T13:53:41.073Z,54.04
2018-04-16T13:56:11.881Z,54.92
2018-04-16T13:58:42.678Z,57.14
2018-04-16T14:01:13.488Z,58.04
2018-04-16T14:03:44.359Z,58.16
2018-04-16T14:06:15.275Z,56.61
2018-04-16T14:08:46.192Z,55.96
2018-04-16T14:11:16.992Z,55.69
2018-04-16T14:13:47.828Z,55.60
2018-04-16T14:16:18.675Z,55.31
2018-04-16T14:18:49.500Z,56.19
2018-04-16T14:21:20.346Z,54.92
2018-04-16T14:23:51.125Z,54.64
2018-04-16T14:26:21.964Z,53.78
2018-04-16T14:28:52.769Z,53.43
2018-04-16T14:31:23.572Z,53.86
2018-04-16T14:33:54.469Z,55.60
2018-04-16T14:36:25.308Z,56.08
2018-04-16T14:38:56.279Z,55.87
2018-04-16T14:41:27.136Z,54.02
2018-04-16T14:43:57.991Z,50.94
2018-04-16T14:46:29.039Z,50.43
2018-04-16T14:49:00.142Z,51.22
2018-04-16T14:51:30.977Z,51.19
2018-04-16T14:54:01.780Z,52.25
2018-04-16T14:56:32.645Z,52.15
2018-04-16T14:59:03.560Z,52.70
2018-04-16T15:01:34.381Z,55.07
2018-04-16T15:04:05.192Z,56.10
2018-04-16T15:06:36.015Z,55.15
2018-04-16T15:09:06.905Z,56.06
2018-04-16T15:11:37.762Z,56.48
2018-04-16T15:14:08.563Z,56.71
2018-04-16T15:16:39.462Z,56.29
2018-04-16T15:19:10.304Z,57.45
2018-04-16T15:21:41.180Z,57.43
2018-04-16T15:24:11.972Z,58.68
2018-04-16T15:26:42.771Z,57.52
2018-04-16T15:29:13.597Z,59.52
2018-04-16T15:31:44.492Z,58.94
2018-04-16T15:34:15.293Z,61.52
2018-04-16T15:36:46.138Z,67.72
2018-04-16T15:39:16.934Z,74.97
2018-04-16T15:41:47.876Z,76.36
2018-04-16T15:44:18.680Z,85.19
2018-04-16T15:46:49.532Z,87.40
2018-04-16T15:49:20.355Z,88.67
2018-04-16T15:51:51.169Z,89.55
2018-04-16T15:54:21.990Z,89.98
2018-04-16T15:56:52.832Z,87.35
2018-04-16T15:59:23.653Z,87.26
2018-04-16T16:01:54.462Z,84.41
2018-04-16T16:04:25.363Z,86.71
2018-04-16T16:06:56.175Z,87.62
2018-04-16T16:09:27.108Z,91.28
2018-04-16T16:11:58.103Z,89.48
2018-04-16T16:14:28.955Z,90.24
2018-04-16T16:16:59.775Z,90.08
2018-04-16T16:19:30.662Z,91.49
2018-04-16T16:22:01.488Z,90.65
2018-04-16T16:24:32.298Z,91.22
2018-04-16T16:27:03.157Z,90.65
2018-04-16T16:29:33.932Z,91.18
2018-04-16T16:32:04.728Z,91.03
2018-04-16T16:34:35.583Z,90.41
2018-04-16T16:37:06.353Z,89.79
2018-04-16T16:39:37.199Z,89.03
2018-04-16T16:42:08.066Z,89.35
2018-04-16T16:44:38.912Z,89.62
2018-04-16T16:47:09.715Z,89.26
2018-04-16T16:49:40.544Z,89.18
2018-04-16T16:52:11.357Z,87.87
2018-04-16T16:54:42.195Z,87.31
2018-04-16T16:57:13.003Z,87.25
2018-04-16T16:59:44.480Z,88.93
2018-04-16T17:02:15.546Z,88.22
2018-04-16T17:04:46.700Z,88.66
2018-04-16T17:07:17.710Z,87.76
2018-04-16T17:09:48.524Z,89.07
2018-04-16T17:12:19.300Z,88.74
2018-04-16T17:14:50.140Z,88.88
2018-04-16T17:17:20.955Z,88.91
2018-04-16T17:19:51.758Z,89.93
2018-04-16T17:22:22.583Z,89.10
2018-04-16T17:24:53.377Z,88.64
2018-04-16T17:27:24.217Z,88.65
2018-04-16T17:29:55.052Z,90.52
2018-04-16T17:32:25.901Z,91.73
2018-04-16T17:34:56.705Z,92.17
2018-04-16T17:37:27.586Z,92.56
2018-04-16T17:39:58.392Z,92.83
2018-04-16T17:42:29.311Z,92.88
2018-04-16T17:45:00.141Z,93.13
2018-04-16T17:47:30.954Z,92.84
2018-04-16T17:50:01.747Z,93.43
2018-04-16T17:52:32.544Z,93.54
2018-04-16T17:55:03.386Z,93.76
2018-04-16T17:57:34.231Z,94.26
2018-04-16T18:00:05.047Z,94.48
2018-04-16T18:02:35.857Z,94.70
2018-04-16T18:05:06.632Z,94.98
2018-04-16T18:07:37.460Z,95.19
2018-04-16T18:10:08.293Z,95.42
2018-04-16T18:12:39.100Z,95.60
2018-04-16T18:15:09.917Z,95.76
2018-04-16T18:17:40.791Z,96.03
2018-04-16T18:20:11.656Z,96.29
2018-04-16T18:22:42.529Z,96.35
2018-04-16T18:25:13.368Z,96.47
2018-04-16T18:27:44.217Z,96.57
2018-04-16T18:30:15.031Z,96.65
2018-04-16T18:32:45.902Z,96.80
2018-04-16T18:35:16.733Z,97.21
2018-04-16T18:37:47.552Z,97.38
2018-04-16T18:40:18.344Z,97.71
2018-04-16T18:42:49.164Z,97.92
2018-04-16T18:45:19.969Z,98.17
2018-04-16T18:47:50.775Z,98.53
2018-04-16T18:50:21.656Z,98.76
2018-04-16T18:52:52.466Z,99.13
2018-04-16T18:55:23.254Z,99.34
2018-04-16T18:57:54.095Z,99.44
2018-04-16T19:00:24.896Z,99.61
2018-04-16T19:02:55.745Z,99.74
2018-04-16T19:05:26.551Z,99.85
2018-04-16T19:07:57.396Z,100.00
2018-04-16T19:10:28.235Z,100.00
2018-04-16T19:12:59.073Z,100.00
2018-04-16T19:15:29.897Z,100.00
2018-04-16T19:18:00.723Z,100.00
2018-04-16T19:20:37.652Z,100.00
2018-04-16T19:23:08.456Z,100.00
2018-04-16T19:25:39.252Z,100.00
2018-04-16T19:28:14.777Z,100.00
2018-04-16T19:30:45.732Z,100.00
2018-04-16T19:33:22.708Z,100.00
2018-04-16T19:35:53.877Z,100.00
2018-04-16T19:38:24.821Z,100.00
2018-04-16T19:40:55.645Z,100.00
2018-04-16T19:43:26.429Z,99.96
2018-04-16T19:45:57.259Z,100.00
2018-04-16T19:48:34.290Z,100.00
2018-04-16T19:51:05.084Z,100.00
2018-04-16T19:53:35.876Z,100.00
2018-04-16T19:56:12.705Z,100.00
2018-04-16T19:58:43.585Z,100.00
2018-04-16T20:01:14.618Z,100.00
2018-04-16T20:03:51.667Z,100.00
2018-04-16T20:06:22.483Z,100.00
2018-04-16T20:08:53.320Z,100.00
2018-04-16T20:11:24.162Z,100.00
2018-04-16T20:13:54.992Z,100.00
2018-04-16T20:16:25.933Z,100.00
2018-04-16T20:18:56.768Z,100.00
2018-04-16T20:21:27.592Z,100.00
2018-04-16T20:23:58.429Z,100.00
2018-04-16T20:26:29.280Z,100.00
2018-04-16T20:29:00.206Z,100.00
2018-04-16T20:31:31.118Z,100.00
2018-04-16T20:34:01.928Z,100.00
2018-04-16T20:36:33.055Z,100.00
2018-04-16T20:39:03.955Z,100.00
2018-04-16T20:41:34.788Z,100.00
2018-04-16T20:44:05.623Z,100.00
2018-04-16T20:46:36.414Z,100.00
2018-04-16T20:49:07.422Z,100.00
2018-04-16T20:51:38.227Z,100.00
2018-04-16T20:54:09.104Z,100.00
2018-04-16T20:56:39.918Z,100.00
2018-04-16T20:59:10.719Z,100.00
2018-04-16T21:01:41.565Z,100.00
2018-04-16T21:04:12.387Z,100.00
2018-04-16T21:06:43.250Z,100.00
2018-04-16T21:09:14.255Z,100.00
2018-04-16T21:11:45.196Z,100.00
2018-04-16T21:14:16.059Z,100.00
2018-04-16T21:16:46.952Z,100.00
2018-04-16T21:19:17.819Z,100.00
2018-04-16T21:21:48.734Z,100.00
2018-04-16T21:24:19.598Z,100.00
2018-04-16T21:26:50.506Z,100.00
2018-04-16T21:29:21.365Z,100.00
2018-04-16T21:31:52.320Z,100.00
2018-04-16T21:34:23.242Z,100.00
2018-04-16T21:36:54.116Z,100.00
2018-04-16T21:39:25.014Z,100.00
2018-04-16T21:41:55.885Z,100.00
2018-04-16T21:44:26.781Z,100.00
2018-04-16T21:46:57.766Z,100.00
2018-04-16T21:49:28.686Z,100.00
2018-04-16T21:51:59.612Z,100.00
2018-04-16T21:54:30.568Z,100.00
2018-04-16T21:57:01.471Z,100.00
2018-04-16T21:59:32.447Z,100.00
2018-04-16T22:02:03.397Z,100.00
2018-04-16T22:04:34.390Z,100.00
2018-04-16T22:07:05.295Z,100.00
2018-04-16T22:09:36.151Z,100.00
2018-04-16T22:12:07.024Z,100.00
2018-04-16T22:14:37.922Z,100.00
2018-04-16T22:17:08.811Z,100.00
2018-04-16T22:19:39.716Z,100.00
2018-04-16T22:22:10.617Z,100.00
2018-04-16T22:24:41.531Z,100.00
2018-04-16T22:27:12.455Z,100.00
2018-04-16T22:29:43.381Z,100.00
2018-04-16T22:32:14.331Z,100.00
2018-04-16T22:34:45.280Z,100.00
2018-04-16T22:37:16.248Z,100.00
2018-04-16T22:39:47.168Z,100.00
2018-04-16T22:42:18.015Z,100.00
2018-04-16T22:44:48.883Z,100.00
2018-04-16T22:47:19.740Z,100.00
2018-04-16T22:49:50.596Z,100.00
2018-04-16T22:52:21.452Z,100.00
2018-04-16T22:54:52.328Z,100.00
2018-04-16T22:57:23.196Z,100.00
2018-04-16T22:59:54.119Z,100.00
2018-04-16T23:02:24.988Z,100.00
2018-04-16T23:04:55.868Z,100.00
2018-04-16T23:07:26.708Z,100.00
2018-04-16T23:09:57.567Z,100.00
2018-04-16T23:12:28.480Z,100.00
2018-04-16T23:14:59.353Z,100.00
2018-04-16T23:17:30.195Z,100.00
2018-04-16T23:20:01.049Z,100.00
2018-04-16T23:22:31.936Z,100.00
2018-04-16T23:25:02.799Z,100.00
2018-04-16T23:27:33.728Z,100.00
2018-04-16T23:30:04.603Z,100.00
2018-04-16T23:32:35.453Z,100.00
2018-04-16T23:35:06.316Z,100.00
2018-04-16T23:37:37.165Z,100.00
2018-04-16T23:40:08.080Z,100.00
2018-04-16T23:42:38.922Z,100.00
2018-04-16T23:45:09.799Z,100.00
2018-04-16T23:47:40.648Z,100.00
2018-04-16T23:50:11.535Z,100.00
2018-04-16T23:52:42.391Z,100.00
2018-04-16T23:55:13.356Z,100.00
2018-04-16T23:57:44.225Z,100.00
